createdAt,value
2022-12-11T00:01:31.572Z,9.77
2022-12-11T00:04:01.851Z,10.57
2022-12-11T00:06:31.968Z,9.30
2022-12-11T00:09:02.246Z,7.82
2022-12-11T00:11:32.463Z,9.02
2022-12-11T00:14:02.521Z,6.20
2022-12-11T00:16:32.243Z,6.82
2022-12-11T00:19:02.382Z,9.07
2022-12-11T00:21:32.304Z,9.38
2022-12-11T00:24:02.415Z,10.07
2022-12-11T00:26:32.356Z,11.85
2022-12-11T00:29:02.140Z,10.85
2022-12-11T00:31:32.298Z,7.22
2022-12-11T00:34:03.900Z,8.63
2022-12-11T00:36:34.135Z,9.63
2022-12-11T00:39:04.701Z,6.97
2022-12-11T00:41:34.574Z,10.27
2022-12-11T00:44:04.414Z,10.25
2022-12-11T00:46:34.528Z,9.85
2022-12-11T00:49:04.259Z,10.20
2022-12-11T00:51:33.992Z,6.45
2022-12-11T00:54:04.486Z,6.72
2022-12-11T00:56:36.484Z,8.80
2022-12-11T00:59:06.842Z,8.07
2022-12-11T01:01:36.878Z,9.90
2022-12-11T01:04:07.055Z,10.25
2022-12-11T01:06:37.038Z,9.07
2022-12-11T01:09:25.266Z,8.77
2022-12-11T01:11:55.540Z,11.55
2022-12-11T01:14:25.554Z,9.02
2022-12-11T01:16:55.693Z,5.70
2022-12-11T01:19:25.432Z,11.05
2022-12-11T01:21:55.696Z,12.63
2022-12-11T01:24:25.380Z,8.57
2022-12-11T01:26:55.146Z,14.35
2022-12-11T01:29:24.871Z,5.28
2022-12-11T01:31:55.026Z,9.20
2022-12-11T01:34:24.856Z,6.47
2022-12-11T01:36:55.281Z,9.15
2022-12-11T01:39:25.368Z,4.65
2022-12-11T01:42:00.230Z,10.02
2022-12-11T01:44:33.062Z,7.50
2022-12-11T01:47:03.170Z,8.35
2022-12-11T01:49:32.973Z,5.93
2022-12-11T01:52:12.907Z,8.02
2022-12-11T01:54:43.952Z,9.27
2022-12-11T01:57:16.735Z,8.70
2022-12-11T01:59:48.242Z,10.02
2022-12-11T02:02:29.265Z,7.47
2022-12-11T02:04:59.539Z,7.25
2022-12-11T02:07:31.590Z,8.90
2022-12-11T02:10:02.018Z,10.95
2022-12-11T02:13:01.493Z,8.43
2022-12-11T02:15:50.016Z,9.23
2022-12-11T02:18:32.160Z,6.85
2022-12-11T02:21:11.025Z,6.75
2022-12-11T02:24:06.372Z,8.95
2022-12-11T02:26:48.609Z,5.88
2022-12-11T02:29:24.481Z,7.25
2022-12-11T02:32:04.330Z,9.18
2022-12-11T02:35:13.663Z,9.57
2022-12-11T02:37:46.957Z,6.72
2022-12-11T02:40:34.611Z,13.32
2022-12-11T02:43:08.675Z,9.18
2022-12-11T02:45:41.214Z,11.25
2022-12-11T02:48:13.561Z,10.05
2022-12-11T02:50:48.990Z,9.57
2022-12-11T02:53:23.940Z,8.90
2022-12-11T02:56:03.191Z,9.00
2022-12-11T02:58:35.187Z,9.75
2022-12-11T03:01:05.862Z,10.98
2022-12-11T03:03:35.937Z,12.13
2022-12-11T03:06:06.809Z,10.65
2022-12-11T03:08:36.650Z,11.93
2022-12-11T03:11:06.485Z,8.98
2022-12-11T03:13:36.256Z,9.77
2022-12-11T03:16:31.407Z,12.43
2022-12-11T03:19:13.639Z,10.48
2022-12-11T03:22:11.985Z,7.90
2022-12-11T03:25:08.587Z,16.25
2022-12-11T03:27:46.430Z,10.77
2022-12-11T03:30:19.801Z,9.68
2022-12-11T03:32:56.349Z,12.95
2022-12-11T03:35:38.520Z,9.88
2022-12-11T03:38:24.121Z,12.93
2022-12-11T03:40:57.201Z,8.27
2022-12-11T03:43:29.335Z,8.90
2022-12-11T03:46:01.385Z,7.60
2022-12-11T03:48:36.354Z,6.80
2022-12-11T03:51:08.956Z,11.10
2022-12-11T03:53:40.326Z,7.20
2022-12-11T03:56:13.689Z,9.25
2022-12-11T03:58:43.643Z,6.72
2022-12-11T04:01:13.946Z,7.93
2022-12-11T04:03:44.158Z,11.35
2022-12-11T04:06:13.880Z,6.22
2022-12-11T04:08:44.184Z,9.18
2022-12-11T04:11:32.362Z,14.35
2022-12-11T04:14:27.354Z,12.55
2022-12-11T04:16:58.236Z,9.20
2022-12-11T04:19:47.129Z,7.95
2022-12-11T04:22:37.608Z,7.43
2022-12-11T04:25:09.709Z,8.38
2022-12-11T04:27:51.812Z,10.90
2022-12-11T04:30:32.341Z,6.25
2022-12-11T04:33:04.346Z,8.65
2022-12-11T04:35:34.295Z,13.77
2022-12-11T04:38:04.031Z,7.50
2022-12-11T04:40:33.779Z,11.13
2022-12-11T04:43:03.581Z,9.32
2022-12-11T04:45:33.540Z,11.98
2022-12-11T04:48:03.242Z,8.80
2022-12-11T04:50:33.003Z,7.20
2022-12-11T04:53:02.717Z,9.88
2022-12-11T04:55:32.507Z,8.77
2022-12-11T04:58:02.288Z,8.05
2022-12-11T05:00:31.975Z,8.68
2022-12-11T05:03:01.786Z,5.22
2022-12-11T05:05:32.201Z,7.15
2022-12-11T05:08:02.017Z,10.80
2022-12-11T05:10:32.128Z,9.38
2022-12-11T05:13:01.822Z,6.43
2022-12-11T05:15:31.564Z,6.95
2022-12-11T05:18:01.245Z,11.52
2022-12-11T05:20:30.983Z,8.95
2022-12-11T05:23:01.148Z,7.53
2022-12-11T05:25:30.976Z,11.43
2022-12-11T05:28:00.670Z,8.80
2022-12-11T05:30:31.324Z,12.70
2022-12-11T05:33:01.895Z,7.60
2022-12-11T05:35:31.845Z,8.65
2022-12-11T05:38:02.602Z,8.90
2022-12-11T05:40:32.327Z,9.98
2022-12-11T05:43:02.010Z,10.10
2022-12-11T05:45:31.703Z,11.68
2022-12-11T05:48:01.567Z,8.18
2022-12-11T05:50:31.264Z,10.63
2022-12-11T05:53:01.089Z,7.47
2022-12-11T05:55:31.347Z,11.35
2022-12-11T05:58:01.075Z,10.70
2022-12-11T06:00:35.887Z,11.70
2022-12-11T06:03:06.547Z,11.15
2022-12-11T06:05:43.989Z,9.85
2022-12-11T06:08:14.176Z,11.27
2022-12-11T06:10:48.527Z,7.80
2022-12-11T06:13:19.528Z,11.88
2022-12-11T06:15:49.586Z,8.57
2022-12-11T06:18:19.389Z,10.48
2022-12-11T06:20:49.139Z,11.55
2022-12-11T06:23:20.076Z,6.85
2022-12-11T06:25:50.349Z,6.55
2022-12-11T06:28:20.084Z,10.02
2022-12-11T06:30:50.219Z,13.63
2022-12-11T06:33:19.908Z,6.45
2022-12-11T06:35:49.632Z,6.13
2022-12-11T06:38:19.660Z,14.93
2022-12-11T06:40:57.237Z,12.05
2022-12-11T06:43:27.243Z,9.98
2022-12-11T06:46:02.086Z,11.05
2022-12-11T06:48:33.936Z,9.25
2022-12-11T06:51:10.840Z,5.32
2022-12-11T06:53:41.665Z,11.38
2022-12-11T06:56:15.070Z,11.18
2022-12-11T06:58:45.535Z,9.48
2022-12-11T07:01:21.826Z,9.15
2022-12-11T07:03:55.056Z,5.93
2022-12-11T07:06:26.099Z,12.25
2022-12-11T07:08:56.737Z,11.40
2022-12-11T07:11:26.585Z,12.32
2022-12-11T07:13:56.438Z,7.55
2022-12-11T07:16:26.148Z,8.25
2022-12-11T07:18:55.878Z,10.13
2022-12-11T07:21:25.591Z,10.32
2022-12-11T07:23:55.498Z,8.60
2022-12-11T07:26:25.207Z,7.22
2022-12-11T07:28:57.818Z,7.53
2022-12-11T07:31:30.365Z,11.85
2022-12-11T07:34:05.736Z,10.75
2022-12-11T07:36:36.449Z,7.63
2022-12-11T07:39:06.394Z,6.10
2022-12-11T07:41:36.311Z,6.40
2022-12-11T07:44:11.974Z,6.47
2022-12-11T07:46:42.327Z,5.72
2022-12-11T07:49:12.218Z,6.13
2022-12-11T07:51:42.633Z,7.13
2022-12-11T07:54:18.684Z,5.82
2022-12-11T07:56:53.863Z,7.68
2022-12-11T07:59:24.200Z,9.48
2022-12-11T08:01:54.858Z,9.93
2022-12-11T08:04:25.562Z,8.73
2022-12-11T08:06:55.277Z,9.10
2022-12-11T08:09:24.973Z,11.25
2022-12-11T08:11:56.292Z,8.73
2022-12-11T08:14:27.440Z,11.15
2022-12-11T08:16:58.584Z,6.13
2022-12-11T08:19:29.210Z,4.80
2022-12-11T08:21:58.967Z,8.40
2022-12-11T08:24:28.745Z,10.13
2022-12-11T08:26:58.758Z,5.00
2022-12-11T08:29:28.591Z,7.10
2022-12-11T08:31:58.296Z,6.03
2022-12-11T08:34:28.043Z,7.40
2022-12-11T08:36:57.769Z,5.30
2022-12-11T08:39:28.865Z,6.53
2022-12-11T08:41:58.706Z,7.20
2022-12-11T08:44:29.468Z,6.53
2022-12-11T08:46:59.156Z,7.32
2022-12-11T08:49:34.037Z,7.63
2022-12-11T08:52:08.029Z,7.22
2022-12-11T08:54:39.657Z,8.18
2022-12-11T08:57:09.782Z,5.80
2022-12-11T08:59:39.796Z,10.88
2022-12-11T09:02:15.718Z,9.50
2022-12-11T09:04:46.165Z,4.40
2022-12-11T09:07:15.882Z,4.53
2022-12-11T09:09:45.712Z,5.70
2022-12-11T09:12:15.663Z,5.20
2022-12-11T09:14:45.484Z,4.90
2022-12-11T09:17:15.273Z,5.13
2022-12-11T09:19:45.692Z,5.85
2022-12-11T09:22:15.387Z,7.22
2022-12-11T09:24:45.098Z,4.97
2022-12-11T09:27:14.934Z,5.20
2022-12-11T09:29:44.991Z,7.38
2022-12-11T09:32:14.710Z,7.43
2022-12-11T09:34:44.486Z,7.53
2022-12-11T09:37:14.265Z,5.00
2022-12-11T09:39:44.341Z,9.82
2022-12-11T09:42:19.630Z,6.60
2022-12-11T09:47:26.832Z,8.48
2022-12-11T09:50:20.815Z,7.13
2022-12-11T09:53:14.457Z,4.88
2022-12-11T09:55:55.200Z,7.93
2022-12-11T09:58:36.230Z,5.47
2022-12-11T10:01:12.120Z,7.78
2022-12-11T10:03:51.183Z,5.60
2022-12-11T10:06:30.267Z,6.45
2022-12-11T10:09:19.239Z,5.45
2022-12-11T10:11:57.857Z,6.13
2022-12-11T10:14:58.078Z,6.68
2022-12-11T10:20:25.385Z,5.10
2022-12-11T10:22:57.991Z,5.97
2022-12-11T10:25:41.998Z,10.02
2022-12-11T10:28:17.340Z,5.63
2022-12-11T10:30:59.360Z,5.22
2022-12-11T10:33:45.174Z,5.40
2022-12-11T10:36:20.258Z,7.28
2022-12-11T10:38:50.307Z,7.05
2022-12-11T10:41:25.644Z,6.07
2022-12-11T10:43:55.831Z,5.60
2022-12-11T10:46:30.530Z,5.82
2022-12-11T10:49:02.154Z,6.00
2022-12-11T10:51:36.685Z,7.05
2022-12-11T10:54:08.666Z,6.25
2022-12-11T10:56:39.933Z,4.53
2022-12-11T10:59:25.716Z,6.65
2022-12-11T11:01:59.210Z,6.20
2022-12-11T11:04:40.311Z,5.90
2022-12-11T11:07:15.451Z,5.20
2022-12-11T11:12:26.383Z,6.43
2022-12-11T11:15:08.221Z,6.88
2022-12-11T11:18:08.070Z,6.70
2022-12-11T11:23:17.536Z,5.88
2022-12-11T11:25:59.251Z,4.70
2022-12-11T11:28:49.544Z,4.65
2022-12-11T11:31:20.991Z,5.18
2022-12-11T11:33:58.783Z,10.20
2022-12-11T11:36:32.731Z,8.00
2022-12-11T11:39:17.474Z,5.72
2022-12-11T11:42:12.043Z,4.28
2022-12-11T11:45:11.998Z,5.80
2022-12-11T11:48:05.075Z,7.30
2022-12-11T11:50:42.647Z,5.25
2022-12-11T11:53:24.222Z,4.82
2022-12-11T11:58:37.566Z,6.22
2022-12-11T12:01:18.428Z,4.28
2022-12-11T12:03:50.590Z,5.10
2022-12-11T12:07:01.995Z,5.10
2022-12-11T12:10:00.280Z,4.22
2022-12-11T12:13:01.963Z,5.43
2022-12-11T12:15:53.435Z,5.55
2022-12-11T12:18:28.787Z,3.95
2022-12-11T12:21:07.782Z,3.55
2022-12-11T12:24:14.823Z,6.20
2022-12-11T12:26:59.081Z,5.63
2022-12-11T12:29:58.088Z,3.83
2022-12-11T12:32:42.228Z,3.72
2022-12-11T12:35:15.456Z,4.80
2022-12-11T12:38:00.031Z,4.72
2022-12-11T12:40:38.161Z,5.53
2022-12-11T12:43:26.489Z,4.65
2022-12-11T12:46:11.444Z,3.90
2022-12-11T12:48:41.952Z,3.70
2022-12-11T12:51:16.294Z,5.88
2022-12-11T12:53:56.075Z,9.70
2022-12-11T12:56:27.336Z,6.22
2022-12-11T12:58:57.784Z,4.45
2022-12-11T13:01:31.113Z,2.75
2022-12-11T13:04:16.791Z,5.72
2022-12-11T13:06:59.132Z,3.08
2022-12-11T13:09:32.652Z,5.63
2022-12-11T13:12:15.037Z,7.03
2022-12-11T13:14:45.338Z,6.00
2022-12-11T13:17:27.355Z,3.75
2022-12-11T13:20:20.721Z,6.28
2022-12-11T13:23:09.849Z,4.78
2022-12-11T13:25:49.331Z,6.18
2022-12-11T13:28:29.339Z,4.35
2022-12-11T13:31:29.904Z,5.45
2022-12-11T13:34:10.714Z,4.63
2022-12-11T13:36:42.435Z,6.82
2022-12-11T13:39:20.066Z,3.55
2022-12-11T13:41:56.814Z,3.88
2022-12-11T13:44:30.628Z,4.25
2022-12-11T13:47:04.503Z,3.38
2022-12-11T13:49:42.959Z,3.47
2022-12-11T13:52:27.049Z,4.85
2022-12-11T13:55:01.247Z,8.02
2022-12-11T13:57:32.275Z,4.30
2022-12-11T14:00:02.465Z,4.93
2022-12-11T14:02:43.743Z,6.18
2022-12-11T14:05:15.862Z,2.47
2022-12-11T14:07:59.785Z,5.85
2022-12-11T14:10:33.113Z,3.85
2022-12-11T14:13:28.345Z,3.00
2022-12-11T14:15:58.450Z,3.70
2022-12-11T14:18:36.737Z,3.38
2022-12-11T14:21:08.145Z,4.93
2022-12-11T14:23:39.502Z,7.20
2022-12-11T14:26:25.373Z,3.10
2022-12-11T14:28:56.355Z,5.10
2022-12-11T14:31:31.968Z,3.30
2022-12-11T14:34:13.646Z,8.38
2022-12-11T14:36:45.319Z,5.40
2022-12-11T14:39:27.266Z,4.38
2022-12-11T14:42:05.895Z,6.38
2022-12-11T14:44:50.455Z,4.78
2022-12-11T14:47:31.342Z,8.70
2022-12-11T14:50:10.735Z,4.05
2022-12-11T14:52:44.741Z,8.63
2022-12-11T14:55:23.155Z,3.95
2022-12-11T14:58:08.643Z,3.50
2022-12-11T15:00:39.602Z,4.00
2022-12-11T15:03:36.950Z,3.17
2022-12-11T15:06:36.165Z,5.78
2022-12-11T15:09:19.491Z,4.60
2022-12-11T15:11:51.709Z,6.80
2022-12-11T15:14:23.957Z,4.32
2022-12-11T15:16:57.765Z,8.13
2022-12-11T15:19:32.907Z,4.65
2022-12-11T15:22:08.030Z,4.38
2022-12-11T15:24:45.043Z,2.30
2022-12-11T15:27:33.609Z,3.78
2022-12-11T15:30:27.915Z,3.95
2022-12-11T15:33:23.338Z,5.97
2022-12-11T15:36:02.284Z,3.85
2022-12-11T15:38:38.763Z,4.70
2022-12-11T15:41:15.845Z,4.03
2022-12-11T15:43:46.728Z,3.13
2022-12-11T15:46:16.583Z,4.18
2022-12-11T15:48:46.427Z,3.80
2022-12-11T15:51:16.770Z,5.57
2022-12-11T15:53:46.498Z,2.95
2022-12-11T15:56:18.000Z,5.45
2022-12-11T15:58:50.883Z,4.97
2022-12-11T16:01:20.811Z,4.35
2022-12-11T16:03:51.549Z,2.85
2022-12-11T16:06:22.212Z,5.93
2022-12-11T16:08:52.597Z,3.63
2022-12-11T16:11:23.648Z,3.55
2022-12-11T16:13:53.854Z,3.67
2022-12-11T16:16:23.668Z,3.80
2022-12-11T16:18:53.411Z,2.75
2022-12-11T16:21:23.141Z,4.07
2022-12-11T16:23:53.374Z,3.58
2022-12-11T16:26:23.093Z,5.18
2022-12-11T16:28:52.788Z,5.38
2022-12-11T16:31:22.536Z,5.10
2022-12-11T16:33:52.300Z,4.20
2022-12-11T16:36:22.463Z,3.45
2022-12-11T16:38:54.252Z,3.63
2022-12-11T16:41:25.195Z,5.70
2022-12-11T16:43:56.048Z,3.03
2022-12-11T16:46:26.929Z,5.80
2022-12-11T16:48:56.881Z,3.05
2022-12-11T16:51:26.652Z,3.38
2022-12-11T16:53:56.363Z,3.65
2022-12-11T16:56:27.692Z,3.03
2022-12-11T16:58:57.793Z,4.20
2022-12-11T17:01:28.989Z,7.32
2022-12-11T17:04:00.701Z,5.63
2022-12-11T17:06:30.893Z,2.78
2022-12-11T17:09:00.677Z,3.00
2022-12-11T17:11:30.543Z,2.80
2022-12-11T17:14:01.621Z,2.35
2022-12-11T17:16:32.317Z,4.05
2022-12-11T17:19:04.503Z,3.00
2022-12-11T17:21:35.009Z,3.50
2022-12-11T17:24:04.768Z,3.20
2022-12-11T17:26:34.680Z,2.78
2022-12-11T17:29:05.104Z,2.63
2022-12-11T17:31:35.391Z,7.15
2022-12-11T17:34:05.622Z,6.65
2022-12-11T17:36:35.574Z,3.78
2022-12-11T17:39:06.354Z,4.93
2022-12-11T17:41:36.722Z,2.30
2022-12-11T17:44:06.899Z,3.58
2022-12-11T17:46:36.726Z,5.40
2022-12-11T17:49:07.393Z,3.20
2022-12-11T17:51:37.314Z,6.28
2022-12-11T17:54:07.195Z,4.55
2022-12-11T17:56:37.356Z,8.60
2022-12-11T17:59:07.188Z,4.82
2022-12-11T18:01:37.300Z,3.85
2022-12-11T18:04:07.315Z,9.18
2022-12-11T18:06:37.700Z,4.15
2022-12-11T18:09:07.675Z,6.15
2022-12-11T18:11:37.421Z,6.10
2022-12-11T18:14:09.152Z,3.55
2022-12-11T18:16:42.594Z,2.42
2022-12-11T18:19:13.536Z,3.67
2022-12-11T18:21:46.781Z,4.30
2022-12-11T18:24:16.901Z,4.57
2022-12-11T18:26:47.115Z,4.28
2022-12-11T18:29:17.960Z,3.05
2022-12-11T18:31:48.265Z,4.00
2022-12-11T18:34:18.014Z,4.57
2022-12-11T18:36:49.348Z,2.97
2022-12-11T18:39:20.252Z,3.30
2022-12-11T18:42:03.502Z,2.15
2022-12-11T18:44:40.059Z,3.60
2022-12-11T18:47:10.125Z,4.07
2022-12-11T18:49:40.088Z,5.90
2022-12-11T18:52:09.815Z,4.28
2022-12-11T18:54:39.596Z,3.65
2022-12-11T18:57:09.726Z,3.53
2022-12-11T18:59:39.698Z,3.55
2022-12-11T19:02:10.110Z,3.85
2022-12-11T19:04:39.900Z,6.50
2022-12-11T19:07:09.754Z,5.78
2022-12-11T19:09:43.494Z,4.43
2022-12-11T19:12:19.681Z,6.00
2022-12-11T19:14:49.966Z,8.05
2022-12-11T19:17:20.350Z,3.90
2022-12-11T19:19:51.036Z,7.05
2022-12-11T19:22:21.562Z,3.00
2022-12-11T19:24:51.405Z,4.03
2022-12-11T19:27:23.139Z,3.58
2022-12-11T19:29:53.379Z,6.68
2022-12-11T19:32:23.518Z,3.78
2022-12-11T19:34:56.929Z,3.00
2022-12-11T19:37:27.594Z,2.92
2022-12-11T19:39:57.863Z,3.83
2022-12-11T19:42:30.917Z,4.97
2022-12-11T19:45:01.707Z,3.90
2022-12-11T19:47:31.912Z,3.78
2022-12-11T19:50:02.054Z,2.22
2022-12-11T19:52:34.109Z,5.13
2022-12-11T19:55:06.945Z,5.05
2022-12-11T19:57:37.128Z,2.92
2022-12-11T20:00:07.817Z,4.35
2022-12-11T20:02:41.542Z,5.72
2022-12-11T20:05:13.283Z,4.28
2022-12-11T20:07:45.657Z,3.25
2022-12-11T20:10:16.753Z,3.92
2022-12-11T20:12:47.102Z,3.50
2022-12-11T20:15:20.057Z,5.60
2022-12-11T20:17:53.521Z,4.97
2022-12-11T20:20:25.851Z,4.10
2022-12-11T20:23:00.420Z,3.53
2022-12-11T20:25:30.347Z,5.13
2022-12-11T20:28:00.260Z,5.43
2022-12-11T20:30:30.196Z,5.57
2022-12-11T20:32:59.933Z,8.60
2022-12-11T20:35:29.900Z,5.50
2022-12-11T20:38:00.918Z,7.57
2022-12-11T20:40:31.099Z,6.45
2022-12-11T20:43:00.838Z,6.10
2022-12-11T20:45:30.949Z,13.95
2022-12-11T20:48:00.739Z,4.10
2022-12-11T20:50:30.792Z,3.55
2022-12-11T20:53:00.793Z,5.05
2022-12-11T20:55:30.539Z,4.93
2022-12-11T20:58:00.281Z,4.63
2022-12-11T21:00:30.210Z,10.68
2022-12-11T21:03:00.021Z,7.80
2022-12-11T21:05:30.137Z,4.63
2022-12-11T21:08:00.913Z,5.93
2022-12-11T21:10:31.962Z,4.50
2022-12-11T21:13:02.116Z,5.40
2022-12-11T21:15:31.840Z,5.93
2022-12-11T21:18:02.466Z,6.95
2022-12-11T21:20:32.238Z,7.72
2022-12-11T21:23:02.183Z,6.57
2022-12-11T21:25:32.183Z,4.88
2022-12-11T21:28:03.239Z,5.25
2022-12-11T21:30:33.349Z,3.78
2022-12-11T21:33:05.140Z,6.25
2022-12-11T21:35:35.298Z,5.43
2022-12-11T21:38:06.010Z,4.78
2022-12-11T21:40:36.410Z,3.75
2022-12-11T21:43:17.295Z,7.85
2022-12-11T21:46:03.086Z,3.47
2022-12-11T21:48:33.951Z,5.25
2022-12-11T21:51:17.504Z,9.88
2022-12-11T21:53:48.549Z,8.85
2022-12-11T21:56:22.333Z,6.30
2022-12-11T21:58:54.733Z,5.82
2022-12-11T22:01:28.104Z,10.02
2022-12-11T22:03:59.114Z,11.23
2022-12-11T22:06:32.283Z,11.00
2022-12-11T22:09:08.405Z,6.13
2022-12-11T22:11:38.689Z,5.97
2022-12-11T22:14:09.434Z,7.90
2022-12-11T22:16:39.752Z,11.52
2022-12-11T22:19:09.594Z,6.38
2022-12-11T22:21:39.766Z,8.40
2022-12-11T22:24:09.707Z,13.00
2022-12-11T22:26:39.452Z,9.43
2022-12-11T22:29:09.513Z,11.18
2022-12-11T22:31:39.207Z,9.15
2022-12-11T22:34:09.297Z,10.30
2022-12-11T22:36:39.958Z,13.25
2022-12-11T22:39:10.119Z,7.13
2022-12-11T22:41:43.388Z,13.02
2022-12-11T22:44:19.958Z,13.82
2022-12-11T22:46:50.891Z,7.72
2022-12-11T22:49:21.800Z,8.73
2022-12-11T22:51:51.595Z,7.10
2022-12-11T22:54:21.337Z,8.02
2022-12-11T22:56:51.304Z,13.63
2022-12-11T22:59:21.305Z,10.68
2022-12-11T23:01:51.399Z,8.65
2022-12-11T23:04:21.099Z,8.07
2022-12-11T23:06:50.813Z,8.27
2022-12-11T23:09:20.538Z,8.30
2022-12-11T23:11:51.181Z,7.65
2022-12-11T23:14:21.139Z,11.98
2022-12-11T23:16:51.087Z,12.48
2022-12-11T23:19:25.467Z,9.38
2022-12-11T23:21:55.954Z,9.98
2022-12-11T23:24:25.840Z,11.77
2022-12-11T23:26:56.081Z,11.80
2022-12-11T23:29:25.826Z,7.80
2022-12-11T23:31:55.553Z,9.52
2022-12-11T23:34:25.526Z,11.90
2022-12-11T23:36:55.571Z,7.95
2022-12-11T23:39:25.333Z,10.05
2022-12-11T23:41:56.272Z,11.32
2022-12-11T23:44:26.420Z,12.27
2022-12-11T23:46:56.164Z,10.63
2022-12-11T23:49:25.899Z,10.38
2022-12-11T23:51:55.694Z,13.27
2022-12-11T23:54:25.431Z,11.13
2022-12-11T23:56:55.355Z,11.93
2022-12-11T23:59:25.076Z,11.27
